Terminal Aerodrome Forecast
Issued by NWS

Home | Current Version | Previous Version | Text Only | Print | Product List | Glossary On
Versions: 1 2 3 4 5 6 7 8 9 10 11 12 13 14 15 16 17 18 19 20 21 22 23 24 25 26
000
FTUS46 KPQR 211800 RRA
TAFONP
TAF
KONP 211800Z 2118/2218 08006KT P6SM FEW050 BKN150 OVC200
     FM212000 32005KT P6SM FEW050 BKN150 OVC200
     FM220200 22008KT P6SM BKN030 BKN150 OVC200
     FM220500 19010KT 4SM -SNRA SCT015 OVC030
     FM220700 17013G20KT 1SM -SNRA BKN008 OVC015
     FM221100 33012KT 5SM -SHSNRA SCT015 BKN025
     FM221600 33012KT P6SM FEW035 SCT250=

USA.gov is the U.S. government's official web portal to all federal, state and local government web resources and services.